sim
Sign-in with your pilot id or email,
or register
Callsign
Passwort

Schedule Details

Flight Number: DLH2062
Departure: Munich Airport (EDDM) at 06:45
Arrival: Hamburg Airport (EDDH) at 08:05
Route: Lufthansa Passenger Schedule. Enter filed route here before submitting Pirep.

Weather Information
Getting current METAR information for EDDM 190320Z VRB01KT CAVOK 06/05 Q1020 NOSIG
Getting current METAR information for EDDH 190320Z 36003KT 9999 BCFG NSC 06/06 Q1025 NOSIG

Schedule Frequency

Route Map